createdAt,value
2022-07-31T00:01:29.567Z,21.60
2022-07-31T00:04:28.359Z,21.37
2022-07-31T00:07:25.905Z,21.27
2022-07-31T00:10:22.916Z,21.28
2022-07-31T00:13:19.860Z,21.80
2022-07-31T00:16:36.968Z,21.87
2022-07-31T00:19:33.735Z,21.70
2022-07-31T00:22:30.638Z,21.48
2022-07-31T00:25:27.603Z,21.38
2022-07-31T00:28:24.922Z,21.28
2022-07-31T00:31:22.201Z,21.19
2022-07-31T00:34:19.886Z,21.09
2022-07-31T00:37:16.744Z,20.95
2022-07-31T00:40:15.682Z,20.69
2022-07-31T00:43:14.278Z,20.49
2022-07-31T00:46:14.442Z,20.51
2022-07-31T00:49:11.726Z,20.62
2022-07-31T00:52:10.057Z,20.69
2022-07-31T00:55:07.644Z,21.24
2022-07-31T00:58:04.657Z,21.72
2022-07-31T01:01:01.773Z,21.72
2022-07-31T01:03:58.766Z,21.30
2022-07-31T01:06:56.034Z,20.55
2022-07-31T01:09:53.747Z,20.34
2022-07-31T01:13:02.430Z,20.31
2022-07-31T01:16:00.294Z,20.33
2022-07-31T01:18:57.906Z,20.31
2022-07-31T01:22:00.821Z,20.27
2022-07-31T01:25:26.999Z,20.28
2022-07-31T01:28:41.594Z,20.43
2022-07-31T01:32:02.099Z,20.53
2022-07-31T01:35:03.186Z,20.37
2022-07-31T01:38:14.917Z,20.18
2022-07-31T01:41:12.846Z,20.03
2022-07-31T01:44:13.939Z,20.03
2022-07-31T01:47:15.216Z,20.05
2022-07-31T01:50:42.933Z,20.13
2022-07-31T01:53:32.813Z,20.19
2022-07-31T01:56:30.977Z,20.28
2022-07-31T01:59:28.543Z,20.30
2022-07-31T02:02:42.445Z,20.26
2022-07-31T02:05:41.343Z,20.27
2022-07-31T02:08:38.853Z,20.17
2022-07-31T02:11:54.379Z,20.10
2022-07-31T02:14:52.907Z,20.09
2022-07-31T02:17:49.871Z,20.11
2022-07-31T02:20:52.848Z,20.06
2022-07-31T02:23:49.861Z,20.03
2022-07-31T02:26:47.176Z,19.98
2022-07-31T02:29:45.316Z,19.94
2022-07-31T02:32:45.454Z,19.94
2022-07-31T02:35:45.606Z,19.99
2022-07-31T02:38:45.799Z,20.05
2022-07-31T02:41:43.551Z,20.17
2022-07-31T02:44:41.088Z,20.20
2022-07-31T02:47:38.930Z,20.22
2022-07-31T02:50:40.169Z,20.14
2022-07-31T02:53:38.175Z,20.17
2022-07-31T02:56:40.233Z,20.12
2022-07-31T02:59:38.306Z,20.05
2022-07-31T03:02:37.867Z,20.10
2022-07-31T03:05:35.985Z,20.21
2022-07-31T03:08:33.212Z,20.20
2022-07-31T03:11:33.634Z,20.16
2022-07-31T03:14:32.837Z,20.04
2022-07-31T03:17:40.825Z,20.06
2022-07-31T03:20:42.131Z,20.19
2022-07-31T03:23:40.046Z,20.15
2022-07-31T03:26:42.211Z,20.04
2022-07-31T03:29:43.478Z,19.96
2022-07-31T03:32:43.038Z,19.81
2022-07-31T03:35:42.417Z,19.75
2022-07-31T03:38:45.494Z,19.63
2022-07-31T03:41:53.755Z,19.49
2022-07-31T03:44:51.221Z,19.50
2022-07-31T03:47:48.192Z,19.50
2022-07-31T03:50:46.325Z,19.43
2022-07-31T03:53:44.074Z,19.33
2022-07-31T03:56:56.980Z,19.21
2022-07-31T03:59:57.700Z,19.18
2022-07-31T04:02:56.416Z,19.17
2022-07-31T04:06:15.883Z,19.10
2022-07-31T04:09:18.594Z,19.14
2022-07-31T04:12:18.992Z,19.06
2022-07-31T04:15:16.139Z,19.01
2022-07-31T04:18:13.262Z,19.00
2022-07-31T04:21:13.483Z,18.97
2022-07-31T04:24:16.767Z,19.02
2022-07-31T04:27:36.501Z,19.06
2022-07-31T04:30:46.239Z,19.09
2022-07-31T04:33:47.094Z,19.10
2022-07-31T04:36:47.257Z,19.06
2022-07-31T04:39:44.014Z,19.06
2022-07-31T04:42:41.020Z,19.04
2022-07-31T04:45:37.881Z,19.13
2022-07-31T04:48:35.846Z,19.21
2022-07-31T04:51:39.563Z,19.27
2022-07-31T04:54:38.571Z,19.34
2022-07-31T04:57:38.436Z,19.38
2022-07-31T05:00:36.581Z,19.53
2022-07-31T05:03:33.908Z,19.53
2022-07-31T05:06:47.060Z,19.51
2022-07-31T05:09:44.300Z,19.51
2022-07-31T05:12:42.044Z,19.49
2022-07-31T05:15:39.215Z,19.52
2022-07-31T05:18:36.287Z,19.51
2022-07-31T05:22:06.329Z,19.51
2022-07-31T05:25:27.203Z,19.63
2022-07-31T05:28:30.102Z,19.70
2022-07-31T05:31:29.037Z,19.83
2022-07-31T05:34:26.184Z,19.81
2022-07-31T05:37:25.336Z,19.98
2022-07-31T05:40:23.418Z,19.88
2022-07-31T05:43:38.925Z,19.85
2022-07-31T05:46:47.115Z,19.87
2022-07-31T05:49:44.996Z,19.96
2022-07-31T05:52:42.730Z,20.11
2022-07-31T05:56:09.133Z,20.07
2022-07-31T05:59:18.019Z,20.15
2022-07-31T06:02:16.437Z,20.27
2022-07-31T06:05:29.868Z,20.29
2022-07-31T06:08:27.359Z,20.50
2022-07-31T06:11:27.620Z,20.57
2022-07-31T06:14:25.139Z,20.65
2022-07-31T06:17:44.133Z,20.83
2022-07-31T06:20:57.921Z,20.97
2022-07-31T06:23:55.879Z,20.95
2022-07-31T06:27:00.708Z,21.03
2022-07-31T06:30:00.196Z,21.10
2022-07-31T06:32:57.142Z,21.09
2022-07-31T06:35:55.075Z,21.07
2022-07-31T06:39:12.128Z,21.10
2022-07-31T06:42:18.069Z,21.04
2022-07-31T06:45:51.112Z,21.07
2022-07-31T06:49:15.793Z,21.16
2022-07-31T06:52:12.848Z,21.17
2022-07-31T06:55:10.473Z,21.14
2022-07-31T06:58:07.872Z,21.16
2022-07-31T07:01:05.250Z,21.21
2022-07-31T07:04:02.274Z,21.41
2022-07-31T07:06:59.388Z,21.48
2022-07-31T07:09:56.250Z,21.52
2022-07-31T07:13:13.399Z,21.54
2022-07-31T07:16:11.819Z,21.61
2022-07-31T07:19:10.287Z,21.75
2022-07-31T07:22:07.303Z,21.89
2022-07-31T07:25:04.681Z,21.95
2022-07-31T07:28:01.927Z,22.05
2022-07-31T07:30:59.475Z,22.13
2022-07-31T07:33:57.223Z,22.10
2022-07-31T07:36:55.459Z,22.17
2022-07-31T07:39:57.452Z,22.36
2022-07-31T07:43:03.201Z,22.49
2022-07-31T07:46:01.108Z,22.47
2022-07-31T07:48:58.346Z,22.37
2022-07-31T07:52:05.175Z,22.58
2022-07-31T07:55:26.242Z,22.85
2022-07-31T07:58:52.091Z,23.04
2022-07-31T08:02:10.484Z,23.13
2022-07-31T08:05:08.370Z,23.38
2022-07-31T08:08:05.249Z,23.16
2022-07-31T08:11:34.367Z,23.10
2022-07-31T08:14:40.346Z,23.14
2022-07-31T08:17:58.785Z,23.12
2022-07-31T08:20:57.327Z,23.37
2022-07-31T08:23:54.031Z,23.43
2022-07-31T08:27:11.303Z,23.42
2022-07-31T08:30:10.113Z,23.58
2022-07-31T08:33:07.505Z,23.64
2022-07-31T08:36:09.161Z,23.70
2022-07-31T08:39:06.157Z,23.86
2022-07-31T08:42:36.808Z,24.22
2022-07-31T08:45:40.207Z,24.13
2022-07-31T08:48:56.932Z,23.87
2022-07-31T08:51:54.293Z,23.70
2022-07-31T08:55:56.153Z,23.89
2022-07-31T08:58:42.411Z,23.91
2022-07-31T09:01:39.046Z,23.92
2022-07-31T09:04:36.473Z,23.97
2022-07-31T09:07:33.331Z,24.14
2022-07-31T09:10:30.018Z,23.83
2022-07-31T09:13:27.223Z,24.00
2022-07-31T09:16:30.512Z,24.12
2022-07-31T09:19:54.209Z,24.18
2022-07-31T09:23:13.343Z,24.27
2022-07-31T09:26:14.361Z,24.10
2022-07-31T09:29:12.991Z,24.03
2022-07-31T09:32:18.268Z,24.06
2022-07-31T09:35:49.902Z,23.91
2022-07-31T09:38:47.396Z,23.90
2022-07-31T09:41:58.145Z,24.14
2022-07-31T09:45:23.127Z,24.25
2022-07-31T09:48:26.699Z,24.42
2022-07-31T09:51:26.093Z,24.27
2022-07-31T09:54:24.486Z,24.24
2022-07-31T09:57:30.220Z,24.27
2022-07-31T10:00:30.315Z,24.22
2022-07-31T10:03:28.239Z,24.25
2022-07-31T10:06:25.091Z,24.10
2022-07-31T10:09:22.661Z,24.21
2022-07-31T10:12:59.933Z,24.43
2022-07-31T10:15:57.624Z,24.37
2022-07-31T10:19:13.328Z,24.26
2022-07-31T10:22:33.906Z,24.16
2022-07-31T10:25:31.174Z,24.31
2022-07-31T10:28:29.827Z,24.22
2022-07-31T10:31:27.412Z,24.10
2022-07-31T10:34:24.450Z,24.04
2022-07-31T10:37:55.189Z,24.05
2022-07-31T10:41:32.326Z,24.05
2022-07-31T10:44:35.403Z,23.97
2022-07-31T10:48:00.959Z,23.85
2022-07-31T10:51:16.255Z,24.01
2022-07-31T10:54:49.040Z,24.26
2022-07-31T10:58:14.638Z,24.21
2022-07-31T11:01:20.835Z,24.08
2022-07-31T11:04:38.401Z,23.95
2022-07-31T11:08:05.420Z,23.75
2022-07-31T11:11:37.900Z,23.93
2022-07-31T11:14:55.384Z,24.01
2022-07-31T11:18:27.486Z,24.13
2022-07-31T11:21:40.826Z,24.26
2022-07-31T11:24:38.585Z,24.41
2022-07-31T11:27:35.406Z,24.39
2022-07-31T11:30:32.342Z,24.25
2022-07-31T11:33:43.942Z,24.32
2022-07-31T11:36:43.185Z,24.38
2022-07-31T11:39:40.932Z,24.45
2022-07-31T11:43:10.395Z,24.50
2022-07-31T11:46:08.464Z,24.66
2022-07-31T11:49:05.873Z,24.50
2022-07-31T11:52:04.783Z,24.57
2022-07-31T11:55:12.495Z,24.71
2022-07-31T11:58:11.407Z,24.71
2022-07-31T12:01:08.742Z,24.88
2022-07-31T12:04:08.769Z,24.90
2022-07-31T12:07:07.757Z,24.77
2022-07-31T12:10:05.995Z,24.88
2022-07-31T12:13:03.394Z,24.97
2022-07-31T12:16:08.102Z,25.11
2022-07-31T12:19:05.624Z,25.03
2022-07-31T12:22:14.877Z,25.19
2022-07-31T12:25:12.685Z,25.18
2022-07-31T12:28:10.241Z,25.08
2022-07-31T12:31:07.203Z,25.19
2022-07-31T12:34:05.022Z,25.24
2022-07-31T12:37:05.844Z,25.41
2022-07-31T12:40:03.611Z,25.37
2022-07-31T12:43:01.450Z,25.26
2022-07-31T12:46:00.424Z,25.38
2022-07-31T12:48:57.402Z,25.35
2022-07-31T12:51:54.614Z,25.31
2022-07-31T12:54:51.637Z,25.23
2022-07-31T12:57:51.888Z,25.20
2022-07-31T13:00:49.511Z,25.42
2022-07-31T13:03:47.220Z,25.37
2022-07-31T13:06:44.701Z,25.28
2022-07-31T13:09:41.859Z,25.31
2022-07-31T13:12:59.507Z,25.35
2022-07-31T13:15:57.414Z,25.27
2022-07-31T13:18:54.243Z,25.13
2022-07-31T13:21:51.448Z,25.22
2022-07-31T13:24:50.318Z,25.20
2022-07-31T13:27:47.427Z,25.15
2022-07-31T13:30:44.356Z,24.98
2022-07-31T13:33:41.299Z,24.77
2022-07-31T13:36:38.754Z,24.57
2022-07-31T13:39:36.757Z,24.40
2022-07-31T13:42:33.231Z,24.37
2022-07-31T13:45:30.606Z,24.12
2022-07-31T13:48:27.680Z,23.78
2022-07-31T13:51:28.563Z,23.58
2022-07-31T13:54:27.699Z,23.52
2022-07-31T13:57:24.767Z,23.37
2022-07-31T14:00:24.492Z,23.35
2022-07-31T14:03:21.675Z,23.04
2022-07-31T14:06:20.335Z,22.57
2022-07-31T14:09:19.438Z,22.68
2022-07-31T14:12:16.437Z,22.73
2022-07-31T14:15:13.484Z,22.90
2022-07-31T14:18:10.651Z,22.88
2022-07-31T14:21:08.094Z,22.78
2022-07-31T14:24:05.776Z,22.56
2022-07-31T14:27:02.633Z,21.99
2022-07-31T14:29:59.545Z,21.56
2022-07-31T14:32:56.558Z,21.45
2022-07-31T14:35:54.709Z,21.55
2022-07-31T14:38:52.685Z,21.40
2022-07-31T14:41:49.715Z,21.45
2022-07-31T14:44:46.642Z,21.43
2022-07-31T14:47:46.333Z,21.32
2022-07-31T14:50:43.877Z,21.49
2022-07-31T14:53:41.568Z,21.72
2022-07-31T14:57:00.151Z,21.60
2022-07-31T14:59:55.415Z,21.30
2022-07-31T15:02:52.395Z,20.89
2022-07-31T15:06:51.060Z,21.03
2022-07-31T15:09:06.733Z,20.92
2022-07-31T15:12:03.937Z,21.11
2022-07-31T15:15:01.620Z,21.00
2022-07-31T15:17:58.741Z,21.07
2022-07-31T15:20:55.911Z,21.05
2022-07-31T15:23:53.556Z,20.96
2022-07-31T15:26:50.526Z,21.15
2022-07-31T15:30:05.602Z,21.22
2022-07-31T15:33:04.706Z,21.24
2022-07-31T15:36:02.728Z,21.17
2022-07-31T15:38:59.220Z,21.23
2022-07-31T15:41:58.157Z,21.39
2022-07-31T15:44:55.584Z,21.43
2022-07-31T15:47:52.315Z,21.60
2022-07-31T15:50:49.803Z,21.38
2022-07-31T15:53:47.044Z,21.20
2022-07-31T15:56:47.112Z,21.26
2022-07-31T15:59:44.555Z,21.34
2022-07-31T16:02:42.544Z,21.47
2022-07-31T16:05:39.634Z,21.64
2022-07-31T16:08:37.496Z,21.66
2022-07-31T16:12:04.644Z,21.46
2022-07-31T16:14:51.457Z,21.55
2022-07-31T16:17:50.650Z,21.63
2022-07-31T16:20:47.375Z,21.64
2022-07-31T16:23:45.463Z,21.75
2022-07-31T16:26:42.498Z,21.84
2022-07-31T16:29:58.729Z,21.67
2022-07-31T16:32:56.842Z,21.54
2022-07-31T16:35:53.648Z,21.66
2022-07-31T16:39:17.731Z,21.69
2022-07-31T16:42:08.939Z,21.83
2022-07-31T16:45:06.132Z,21.86
2022-07-31T16:48:04.314Z,22.38
2022-07-31T16:51:01.991Z,22.75
2022-07-31T16:54:13.908Z,23.01
2022-07-31T16:57:14.079Z,23.07
2022-07-31T17:00:12.424Z,23.03
2022-07-31T17:03:59.481Z,23.19
2022-07-31T17:06:36.152Z,23.34
2022-07-31T17:09:34.534Z,23.20
2022-07-31T17:12:31.454Z,22.86
2022-07-31T17:15:28.542Z,22.43
2022-07-31T17:18:26.078Z,22.62
2022-07-31T17:21:24.704Z,22.69
2022-07-31T17:24:27.664Z,22.83
2022-07-31T17:27:25.663Z,23.09
2022-07-31T17:30:22.744Z,22.94
2022-07-31T17:33:19.645Z,22.93
2022-07-31T17:36:16.687Z,22.99
2022-07-31T17:39:13.820Z,22.89
2022-07-31T17:42:10.744Z,22.99
2022-07-31T17:45:08.014Z,23.15
2022-07-31T17:48:08.494Z,22.78
2022-07-31T17:51:05.979Z,22.72
2022-07-31T17:54:03.698Z,22.49
2022-07-31T17:57:00.965Z,22.41
2022-07-31T17:59:58.122Z,22.50
2022-07-31T18:02:55.856Z,22.48
2022-07-31T18:05:52.935Z,22.61
2022-07-31T18:08:49.929Z,22.69
2022-07-31T18:11:47.193Z,22.63
2022-07-31T18:14:46.381Z,22.73
2022-07-31T18:17:49.937Z,22.79
2022-07-31T18:20:47.065Z,22.84
2022-07-31T18:23:47.609Z,22.64
2022-07-31T18:26:45.095Z,22.76
2022-07-31T18:29:42.691Z,22.54
2022-07-31T18:32:54.080Z,22.60
2022-07-31T18:35:51.915Z,22.58
2022-07-31T18:38:48.871Z,22.66
2022-07-31T18:41:48.980Z,22.62
2022-07-31T18:44:46.777Z,22.57
2022-07-31T18:47:44.083Z,22.37
2022-07-31T18:51:02.242Z,22.46
2022-07-31T18:53:59.110Z,22.48
2022-07-31T18:56:56.890Z,22.55
2022-07-31T18:59:56.469Z,22.61
2022-07-31T19:02:53.959Z,22.67
2022-07-31T19:05:53.054Z,22.56
2022-07-31T19:08:52.253Z,22.51
2022-07-31T19:11:50.742Z,22.44
2022-07-31T19:14:48.617Z,22.40
2022-07-31T19:17:45.648Z,22.47
2022-07-31T19:20:58.974Z,22.53
2022-07-31T19:24:02.658Z,22.57
2022-07-31T19:26:59.775Z,22.49
2022-07-31T19:29:56.671Z,22.56
2022-07-31T19:32:54.462Z,22.62
2022-07-31T19:35:58.361Z,22.67
2022-07-31T19:38:57.658Z,22.70
2022-07-31T19:42:11.350Z,22.73
2022-07-31T19:45:09.953Z,22.72
2022-07-31T19:48:06.803Z,22.72
2022-07-31T19:51:04.181Z,22.58
2022-07-31T19:54:01.841Z,22.57
2022-07-31T19:56:58.897Z,22.47
2022-07-31T19:59:56.137Z,22.44
2022-07-31T20:02:53.921Z,22.44
2022-07-31T20:05:50.835Z,22.50
2022-07-31T20:08:49.119Z,22.54
2022-07-31T20:11:47.193Z,22.70
2022-07-31T20:14:44.884Z,22.80
2022-07-31T20:17:41.925Z,22.76
2022-07-31T20:20:39.377Z,22.53
2022-07-31T20:23:41.678Z,22.56
2022-07-31T20:26:39.136Z,22.50
2022-07-31T20:29:36.889Z,22.58
2022-07-31T20:32:33.917Z,22.54
2022-07-31T20:35:32.912Z,22.69
2022-07-31T20:38:45.422Z,22.62
2022-07-31T20:41:42.837Z,22.67
2022-07-31T20:44:41.513Z,22.81
2022-07-31T20:47:39.046Z,22.70
2022-07-31T20:50:36.171Z,22.53
2022-07-31T20:53:33.418Z,22.25
2022-07-31T20:56:32.177Z,22.18
2022-07-31T20:59:30.616Z,22.19
2022-07-31T21:02:27.730Z,22.21
2022-07-31T21:05:29.288Z,22.15
2022-07-31T21:08:26.694Z,21.98
2022-07-31T21:11:31.585Z,21.86
2022-07-31T21:14:28.951Z,21.71
2022-07-31T21:17:27.247Z,21.72
2022-07-31T21:20:29.154Z,21.61
2022-07-31T21:23:41.930Z,21.64
2022-07-31T21:26:38.863Z,21.71
2022-07-31T21:29:36.148Z,21.68
2022-07-31T21:32:33.039Z,21.58
2022-07-31T21:35:37.286Z,21.64
2022-07-31T21:38:35.660Z,21.65
2022-07-31T21:41:33.306Z,21.69
2022-07-31T21:44:30.901Z,21.78
2022-07-31T21:47:29.006Z,21.79
2022-07-31T21:50:46.611Z,21.81
2022-07-31T21:53:44.296Z,21.73
2022-07-31T21:56:42.179Z,21.80
2022-07-31T21:59:38.851Z,21.65
2022-07-31T22:02:35.629Z,21.70
2022-07-31T22:05:51.773Z,21.80
2022-07-31T22:08:48.919Z,21.60
2022-07-31T22:12:00.047Z,21.62
2022-07-31T22:14:59.240Z,21.64
2022-07-31T22:17:56.685Z,21.74
2022-07-31T22:20:54.134Z,21.44
2022-07-31T22:23:51.036Z,21.49
2022-07-31T22:27:08.777Z,21.48
2022-07-31T22:30:06.649Z,21.56
2022-07-31T22:33:05.015Z,21.55
2022-07-31T22:36:06.963Z,21.48
2022-07-31T22:39:13.532Z,21.55
2022-07-31T22:42:10.971Z,21.64
2022-07-31T22:45:08.280Z,21.61
2022-07-31T22:48:06.002Z,21.40
2022-07-31T22:51:04.267Z,21.63
2022-07-31T22:54:00.981Z,21.62
2022-07-31T22:56:58.110Z,21.67
2022-07-31T22:59:55.035Z,21.66
2022-07-31T23:02:51.984Z,21.64
2022-07-31T23:09:05.908Z,21.64
2022-07-31T23:12:03.150Z,21.41
2022-07-31T23:15:01.508Z,21.18
2022-07-31T23:17:59.635Z,21.16
2022-07-31T23:20:57.116Z,21.23
2022-07-31T23:23:54.277Z,21.29
2022-07-31T23:26:51.237Z,21.31
2022-07-31T23:29:49.161Z,21.35
2022-07-31T23:32:46.136Z,21.45
2022-07-31T23:35:43.047Z,21.34
2022-07-31T23:38:39.965Z,21.29
2022-07-31T23:41:55.728Z,21.51
2022-07-31T23:44:52.851Z,21.65
2022-07-31T23:47:50.064Z,21.46
2022-07-31T23:50:47.104Z,21.47
2022-07-31T23:53:43.981Z,21.58
2022-07-31T23:56:43.060Z,21.70
2022-07-31T23:59:39.946Z,21.72
